createdAt,value
2022-10-28T00:01:21.247Z,65.01
2022-10-28T00:03:58.809Z,64.47
2022-10-28T00:06:35.823Z,64.87
2022-10-28T00:09:05.715Z,64.39
2022-10-28T00:11:35.878Z,64.75
2022-10-28T00:14:05.838Z,65.23
2022-10-28T00:16:35.406Z,64.55
2022-10-28T00:19:04.232Z,64.81
2022-10-28T00:21:34.507Z,64.52
2022-10-28T00:24:01.821Z,64.77
2022-10-28T00:26:31.289Z,64.67
2022-10-28T00:29:02.444Z,64.09
2022-10-28T00:31:30.880Z,64.01
2022-10-28T00:34:02.526Z,64.52
2022-10-28T00:36:35.556Z,64.27
2022-10-28T00:39:04.831Z,64.39
2022-10-28T00:41:34.938Z,64.13
2022-10-28T00:44:23.324Z,63.79
2022-10-28T00:46:53.404Z,64.16
2022-10-28T00:49:34.231Z,64.27
2022-10-28T00:52:09.547Z,64.37
2022-10-28T00:54:39.044Z,63.73
2022-10-28T00:57:13.102Z,63.92
2022-10-28T00:59:45.834Z,64.04
2022-10-28T01:02:13.068Z,63.47
2022-10-28T01:04:41.005Z,63.47
2022-10-28T01:07:08.364Z,63.13
2022-10-28T01:09:35.294Z,63.12
2022-10-28T01:12:05.191Z,62.18
2022-10-28T01:14:34.804Z,62.61
2022-10-28T01:17:27.674Z,62.62
2022-10-28T01:20:15.708Z,62.61
2022-10-28T01:23:19.510Z,62.54
2022-10-28T01:25:55.511Z,62.74
2022-10-28T01:28:54.586Z,62.63
2022-10-28T01:31:42.546Z,62.33
2022-10-28T01:34:18.683Z,62.64
2022-10-28T01:37:10.678Z,62.48
2022-10-28T01:39:55.212Z,62.31
2022-10-28T01:42:32.075Z,62.08
2022-10-28T01:45:10.796Z,62.08
2022-10-28T01:47:57.190Z,62.07
2022-10-28T01:50:38.321Z,62.18
2022-10-28T01:53:11.182Z,62.53
2022-10-28T01:55:42.951Z,62.61
2022-10-28T01:58:13.872Z,62.32
2022-10-28T02:00:43.251Z,62.84
2022-10-28T02:03:10.378Z,62.47
2022-10-28T02:05:46.065Z,62.53
2022-10-28T02:08:51.923Z,62.55
2022-10-28T02:11:21.895Z,62.49
2022-10-28T02:13:51.580Z,62.37
2022-10-28T02:16:40.072Z,62.47
2022-10-28T02:19:26.157Z,62.25
2022-10-28T02:22:02.226Z,62.07
2022-10-28T02:24:36.511Z,62.13
2022-10-28T02:27:35.232Z,62.08
2022-10-28T02:30:21.829Z,61.96
2022-10-28T02:33:01.351Z,61.85
2022-10-28T02:35:33.696Z,62.09
2022-10-28T02:38:04.980Z,62.07
2022-10-28T02:40:35.174Z,62.40
2022-10-28T02:43:06.716Z,63.32
2022-10-28T02:45:47.266Z,63.43
2022-10-28T02:48:27.359Z,63.96
2022-10-28T02:51:00.666Z,64.50
2022-10-28T02:53:33.220Z,64.48
2022-10-28T02:56:03.725Z,64.27
2022-10-28T02:58:39.334Z,64.50
2022-10-28T03:01:06.883Z,64.78
2022-10-28T03:03:33.844Z,63.91
2022-10-28T03:06:00.895Z,64.14
2022-10-28T03:08:27.967Z,63.66
2022-10-28T03:10:54.852Z,63.73
2022-10-28T03:13:21.840Z,63.65
2022-10-28T03:15:48.811Z,64.58
2022-10-28T03:18:15.688Z,63.92
2022-10-28T03:20:42.666Z,64.23
2022-10-28T03:23:09.639Z,63.98
2022-10-28T03:26:27.117Z,63.49
2022-10-28T03:28:54.140Z,63.09
2022-10-28T03:31:23.553Z,63.79
2022-10-28T03:33:50.449Z,64.10
2022-10-28T03:36:17.430Z,63.18
2022-10-28T03:38:44.303Z,63.23
2022-10-28T03:41:11.183Z,63.78
2022-10-28T03:43:38.090Z,63.84
2022-10-28T03:46:05.181Z,63.55
2022-10-28T03:48:32.282Z,63.81
2022-10-28T03:50:59.373Z,64.04
2022-10-28T03:53:27.772Z,64.39
2022-10-28T03:56:00.232Z,64.76
2022-10-28T03:58:27.796Z,64.92
2022-10-28T04:00:55.401Z,65.01
2022-10-28T04:03:24.126Z,64.92
2022-10-28T04:05:51.450Z,64.82
2022-10-28T04:08:19.904Z,65.33
2022-10-28T04:10:47.787Z,64.82
2022-10-28T04:13:18.614Z,64.20
2022-10-28T04:15:45.637Z,64.68
2022-10-28T04:18:12.880Z,64.95
2022-10-28T04:20:39.949Z,65.26
2022-10-28T04:23:09.006Z,65.73
2022-10-28T04:25:36.092Z,65.96
2022-10-28T04:28:03.119Z,65.82
2022-10-28T04:30:30.076Z,65.65
2022-10-28T04:32:57.100Z,65.96
2022-10-28T04:35:24.526Z,65.63
2022-10-28T04:37:54.244Z,65.46
2022-10-28T04:40:21.475Z,65.67
2022-10-28T04:42:48.302Z,65.19
2022-10-28T04:45:17.385Z,64.75
2022-10-28T04:47:44.269Z,64.53
2022-10-28T04:50:11.260Z,65.11
2022-10-28T04:52:38.131Z,64.36
2022-10-28T04:55:05.519Z,65.03
2022-10-28T04:57:33.076Z,65.44
2022-10-28T05:00:00.007Z,65.11
2022-10-28T05:02:27.077Z,65.04
2022-10-28T05:04:54.173Z,64.94
2022-10-28T05:07:23.495Z,64.72
2022-10-28T05:09:50.899Z,64.96
2022-10-28T05:12:17.999Z,64.46
2022-10-28T05:14:44.878Z,64.35
2022-10-28T05:17:11.959Z,64.24
2022-10-28T05:19:39.088Z,64.37
2022-10-28T05:22:06.172Z,64.10
2022-10-28T05:24:33.130Z,64.52
2022-10-28T05:27:00.960Z,64.53
2022-10-28T05:29:33.062Z,64.33
2022-10-28T05:32:00.597Z,64.12
2022-10-28T05:34:27.612Z,64.18
2022-10-28T05:36:54.542Z,64.40
2022-10-28T05:39:21.424Z,64.36
2022-10-28T05:41:48.541Z,65.04
2022-10-28T05:44:15.500Z,64.64
2022-10-28T05:46:42.445Z,65.22
2022-10-28T05:49:09.382Z,65.02
2022-10-28T05:51:36.378Z,64.93
2022-10-28T05:54:03.399Z,64.95
2022-10-28T05:56:30.353Z,65.13
2022-10-28T05:58:57.306Z,65.33
2022-10-28T06:01:24.377Z,64.90
2022-10-28T06:03:51.569Z,65.22
2022-10-28T06:06:18.564Z,64.98
2022-10-28T06:08:45.642Z,65.51
2022-10-28T06:11:11.285Z,65.81
2022-10-28T06:13:38.274Z,65.13
2022-10-28T06:16:07.490Z,64.85
2022-10-28T06:18:34.449Z,64.51
2022-10-28T06:21:01.439Z,64.67
2022-10-28T06:23:28.330Z,65.14
2022-10-28T06:28:29.740Z,64.35
2022-10-28T06:31:08.034Z,64.15
2022-10-28T06:33:35.698Z,64.67
2022-10-28T06:36:02.963Z,63.99
2022-10-28T06:38:30.170Z,64.06
2022-10-28T06:41:00.055Z,64.31
2022-10-28T06:43:27.076Z,63.90
2022-10-28T06:45:55.984Z,63.99
2022-10-28T06:48:24.884Z,64.22
2022-10-28T06:50:55.137Z,64.14
2022-10-28T06:53:22.347Z,64.50
2022-10-28T06:55:56.783Z,64.29
2022-10-28T06:58:25.137Z,64.34
2022-10-28T07:00:52.938Z,64.57
2022-10-28T07:03:20.350Z,63.96
2022-10-28T07:05:49.300Z,64.96
2022-10-28T07:08:17.075Z,65.46
2022-10-28T07:10:44.005Z,65.06
2022-10-28T07:13:11.142Z,64.93
2022-10-28T07:15:38.136Z,64.67
2022-10-28T07:18:05.199Z,64.81
2022-10-28T07:20:33.093Z,65.36
2022-10-28T07:23:02.116Z,64.66
2022-10-28T07:25:31.833Z,64.41
2022-10-28T07:27:59.534Z,64.19
2022-10-28T07:30:28.153Z,63.96
2022-10-28T07:32:56.008Z,64.21
2022-10-28T07:35:23.394Z,64.17
2022-10-28T07:37:50.327Z,63.95
2022-10-28T07:40:18.045Z,63.90
2022-10-28T07:42:44.991Z,63.35
2022-10-28T07:45:12.044Z,63.63
2022-10-28T07:47:39.022Z,63.80
2022-10-28T07:50:07.832Z,62.54
2022-10-28T07:52:35.866Z,63.71
2022-10-28T07:55:06.716Z,62.85
2022-10-28T07:57:36.963Z,62.42
2022-10-28T08:00:05.734Z,61.54
2022-10-28T08:02:38.092Z,61.60
2022-10-28T08:05:05.743Z,61.66
2022-10-28T08:07:34.911Z,60.96
2022-10-28T08:10:05.476Z,60.74
2022-10-28T08:12:32.537Z,61.97
2022-10-28T08:14:59.523Z,61.66
2022-10-28T08:17:26.451Z,60.21
2022-10-28T08:19:53.384Z,60.08
2022-10-28T08:22:22.765Z,59.55
2022-10-28T08:24:49.743Z,59.29
2022-10-28T08:27:16.682Z,59.32
2022-10-28T08:29:43.703Z,59.09
2022-10-28T08:32:10.738Z,59.01
2022-10-28T08:34:43.666Z,58.81
2022-10-28T08:37:11.117Z,58.85
2022-10-28T08:39:38.167Z,58.44
2022-10-28T08:42:33.545Z,57.97
2022-10-28T08:45:18.893Z,57.76
2022-10-28T08:48:03.665Z,57.18
2022-10-28T08:50:33.985Z,56.48
2022-10-28T08:53:06.622Z,56.98
2022-10-28T08:55:38.681Z,56.60
2022-10-28T08:58:24.871Z,56.70
2022-10-28T09:00:54.749Z,53.37
2022-10-28T09:03:24.629Z,53.16
2022-10-28T09:06:11.110Z,52.60
2022-10-28T09:08:42.542Z,50.33
2022-10-28T09:11:34.335Z,47.82
2022-10-28T09:14:22.286Z,48.64
2022-10-28T09:16:56.131Z,48.49
2022-10-28T09:19:32.276Z,48.22
2022-10-28T09:22:30.762Z,48.28
2022-10-28T09:25:36.775Z,48.79
2022-10-28T09:28:20.783Z,49.71
2022-10-28T09:31:01.329Z,50.56
2022-10-28T09:33:47.353Z,49.89
2022-10-28T09:36:25.013Z,47.17
2022-10-28T09:38:54.158Z,45.08
2022-10-28T09:41:41.985Z,43.23
2022-10-28T09:44:22.654Z,42.83
2022-10-28T09:46:53.889Z,43.41
2022-10-28T09:49:35.904Z,44.32
2022-10-28T09:52:08.758Z,43.57
2022-10-28T09:54:43.079Z,43.47
2022-10-28T09:57:12.552Z,43.66
2022-10-28T09:59:42.121Z,42.86
2022-10-28T10:02:33.488Z,42.82
2022-10-28T10:05:02.871Z,43.02
2022-10-28T10:07:41.166Z,43.71
2022-10-28T10:10:16.034Z,44.81
2022-10-28T10:12:43.549Z,45.15
2022-10-28T10:15:27.343Z,45.37
2022-10-28T10:17:58.004Z,46.35
2022-10-28T10:20:25.070Z,49.64
2022-10-28T10:22:52.316Z,49.63
2022-10-28T10:25:19.569Z,50.97
2022-10-28T10:28:13.554Z,52.01
2022-10-28T10:30:52.870Z,53.62
2022-10-28T10:33:26.715Z,53.76
2022-10-28T10:36:00.170Z,54.80
2022-10-28T10:38:29.088Z,54.99
2022-10-28T10:40:56.611Z,56.09
2022-10-28T10:43:31.040Z,56.53
2022-10-28T10:46:12.749Z,56.64
2022-10-28T10:48:39.830Z,56.40
2022-10-28T10:51:26.124Z,56.86
2022-10-28T10:53:57.787Z,56.84
2022-10-28T10:56:27.534Z,57.25
2022-10-28T10:58:57.530Z,57.73
2022-10-28T11:01:28.466Z,57.69
2022-10-28T11:04:01.531Z,57.98
2022-10-28T11:06:31.274Z,58.53
2022-10-28T11:09:02.669Z,58.87
2022-10-28T11:11:35.184Z,58.97
2022-10-28T11:14:18.296Z,58.57
2022-10-28T11:16:51.205Z,59.13
2022-10-28T11:19:32.190Z,59.13
2022-10-28T11:22:14.101Z,60.04
2022-10-28T11:25:16.637Z,60.56
2022-10-28T11:28:04.393Z,60.54
2022-10-28T11:30:40.796Z,60.72
2022-10-28T11:33:35.437Z,60.65
2022-10-28T11:36:11.564Z,60.66
2022-10-28T11:38:54.132Z,60.81
2022-10-28T11:41:30.542Z,60.52
2022-10-28T11:44:04.719Z,60.30
2022-10-28T11:46:51.917Z,60.39
2022-10-28T11:49:24.752Z,60.26
2022-10-28T11:52:03.361Z,60.59
2022-10-28T11:55:18.492Z,60.72
2022-10-28T11:58:09.554Z,60.60
2022-10-28T12:00:43.727Z,60.34
2022-10-28T12:03:31.235Z,60.54
2022-10-28T12:06:23.322Z,61.15
2022-10-28T12:08:53.204Z,60.87
2022-10-28T12:11:43.428Z,60.77
2022-10-28T12:14:22.420Z,60.71
2022-10-28T12:17:01.356Z,61.11
2022-10-28T12:19:43.292Z,60.73
2022-10-28T12:22:15.073Z,61.31
2022-10-28T12:24:46.072Z,61.31
2022-10-28T12:27:24.187Z,61.07
2022-10-28T12:30:09.493Z,61.08
2022-10-28T12:32:39.078Z,61.59
2022-10-28T12:35:06.107Z,61.57
2022-10-28T12:37:48.704Z,61.93
2022-10-28T12:40:24.645Z,62.08
2022-10-28T12:43:05.599Z,62.20
2022-10-28T12:45:33.444Z,62.12
2022-10-28T12:48:11.093Z,62.12
2022-10-28T12:50:52.192Z,62.36
2022-10-28T12:53:24.556Z,62.88
2022-10-28T12:55:58.960Z,62.80
2022-10-28T12:58:38.428Z,62.78
2022-10-28T13:01:17.393Z,62.86
2022-10-28T13:03:44.512Z,62.63
2022-10-28T13:06:49.103Z,62.88
2022-10-28T13:09:32.192Z,62.48
2022-10-28T13:12:16.923Z,62.71
2022-10-28T13:15:09.921Z,62.67
2022-10-28T13:17:56.308Z,62.92
2022-10-28T13:20:47.463Z,62.85
2022-10-28T13:23:40.734Z,63.32
2022-10-28T13:26:27.035Z,63.62
2022-10-28T13:28:59.928Z,63.77
2022-10-28T13:31:48.966Z,64.46
2022-10-28T13:34:20.738Z,64.02
2022-10-28T13:36:57.757Z,63.75
2022-10-28T13:39:33.960Z,63.95
2022-10-28T13:42:13.123Z,64.54
2022-10-28T13:45:01.522Z,64.35
2022-10-28T13:47:36.373Z,64.51
2022-10-28T13:50:06.600Z,64.15
2022-10-28T13:52:35.203Z,64.07
2022-10-28T13:55:14.350Z,63.95
2022-10-28T13:57:47.654Z,64.36
2022-10-28T14:00:17.646Z,63.96
2022-10-28T14:03:06.415Z,64.33
2022-10-28T14:09:42.037Z,64.30
2022-10-28T14:12:30.570Z,64.55
2022-10-28T14:14:57.371Z,64.73
2022-10-28T14:17:36.805Z,64.29
2022-10-28T14:20:08.674Z,64.62
2022-10-28T14:22:36.825Z,64.29
2022-10-28T14:25:24.143Z,64.61
2022-10-28T14:27:51.299Z,65.18
2022-10-28T14:30:20.855Z,65.45
2022-10-28T14:35:44.568Z,66.01
2022-10-28T14:38:36.288Z,65.59
2022-10-28T14:41:03.287Z,65.57
2022-10-28T14:43:54.907Z,65.49
2022-10-28T14:46:46.733Z,65.53
2022-10-28T14:49:29.093Z,65.76
2022-10-28T14:51:58.260Z,66.27
2022-10-28T14:54:44.297Z,66.83
2022-10-28T14:57:11.428Z,67.11
2022-10-28T14:59:42.586Z,67.26
2022-10-28T15:02:17.622Z,67.82
2022-10-28T15:04:47.360Z,68.10
2022-10-28T15:10:15.724Z,67.90
2022-10-28T15:12:45.825Z,67.89
2022-10-28T15:15:23.647Z,68.42
2022-10-28T15:17:51.188Z,68.39
2022-10-28T15:20:27.332Z,68.44
2022-10-28T15:23:10.848Z,68.49
2022-10-28T15:25:37.919Z,68.40
2022-10-28T15:30:50.065Z,68.00
2022-10-28T15:33:30.508Z,69.41
2022-10-28T15:40:35.477Z,69.47
2022-10-28T15:43:07.271Z,70.16
2022-10-28T15:54:11.985Z,71.16
2022-10-28T15:59:44.101Z,70.70
2022-10-28T16:05:33.086Z,71.05
2022-10-28T16:08:05.269Z,71.25
2022-10-28T16:10:36.154Z,71.16
2022-10-28T16:15:59.759Z,70.86
2022-10-28T16:18:28.844Z,70.75
2022-10-28T16:20:57.787Z,70.31
2022-10-28T16:23:31.281Z,69.83
2022-10-28T16:25:58.313Z,70.35
2022-10-28T16:28:27.566Z,69.78
2022-10-28T16:30:57.595Z,69.90
2022-10-28T16:33:39.014Z,69.46
2022-10-28T16:36:06.384Z,69.65
2022-10-28T16:41:19.551Z,69.78
2022-10-28T16:43:46.783Z,70.27
2022-10-28T16:46:14.816Z,69.86
2022-10-28T16:48:42.015Z,69.99
2022-10-28T16:51:15.056Z,69.28
2022-10-28T16:53:47.130Z,69.41
2022-10-28T16:56:17.888Z,69.01
2022-10-28T16:58:45.531Z,69.62
2022-10-28T17:01:18.027Z,69.21
2022-10-28T17:03:45.687Z,69.49
2022-10-28T17:09:02.825Z,69.71
2022-10-28T17:13:58.710Z,68.41
2022-10-28T17:16:25.890Z,67.90
2022-10-28T17:18:52.963Z,68.12
2022-10-28T17:21:20.195Z,68.31
2022-10-28T17:23:47.313Z,68.40
2022-10-28T17:26:14.577Z,68.28
2022-10-28T17:31:26.123Z,67.81
2022-10-28T17:33:54.777Z,68.32
2022-10-28T17:36:23.303Z,68.36
2022-10-28T17:38:50.460Z,68.10
2022-10-28T17:41:17.538Z,67.90
2022-10-28T17:43:44.564Z,68.51
2022-10-28T17:46:11.754Z,68.80
2022-10-28T17:48:40.329Z,67.97
2022-10-28T17:51:07.275Z,67.93
2022-10-28T17:53:34.242Z,68.34
2022-10-28T17:56:03.186Z,68.96
2022-10-28T17:58:30.583Z,69.20
2022-10-28T18:01:03.302Z,69.10
2022-10-28T18:03:33.991Z,70.09
2022-10-28T18:06:10.870Z,69.67
2022-10-28T18:08:40.598Z,69.61
2022-10-28T18:11:09.710Z,70.17
2022-10-28T18:13:41.033Z,69.83
2022-10-28T18:16:10.664Z,69.86
2022-10-28T18:18:42.143Z,70.05
2022-10-28T18:21:11.500Z,69.88
2022-10-28T18:23:39.619Z,69.21
2022-10-28T18:26:10.075Z,69.69
2022-10-28T18:28:38.278Z,69.87
2022-10-28T18:31:07.766Z,69.43
2022-10-28T18:33:35.397Z,69.91
2022-10-28T18:36:07.718Z,70.02
2022-10-28T18:38:34.786Z,70.22
2022-10-28T18:41:01.946Z,69.98
2022-10-28T18:43:29.478Z,70.72
2022-10-28T18:46:02.153Z,70.86
2022-10-28T18:48:30.509Z,70.92
2022-10-28T18:51:04.929Z,70.43
2022-10-28T18:53:36.778Z,70.79
2022-10-28T18:56:08.325Z,70.41
2022-10-28T18:58:35.724Z,69.84
2022-10-28T19:01:10.443Z,70.26
2022-10-28T19:03:38.012Z,70.02
2022-10-28T19:06:13.438Z,70.20
2022-10-28T19:08:41.117Z,70.20
2022-10-28T19:11:10.161Z,69.93
2022-10-28T19:13:39.412Z,70.49
2022-10-28T19:16:07.560Z,70.04
2022-10-28T19:18:36.878Z,69.88
2022-10-28T19:21:22.463Z,70.20
2022-10-28T19:23:51.199Z,70.14
2022-10-28T19:26:18.374Z,70.41
2022-10-28T19:28:47.568Z,70.33
2022-10-28T19:31:19.963Z,70.53
2022-10-28T19:33:47.076Z,70.37
2022-10-28T19:36:35.731Z,70.42
2022-10-28T19:39:03.463Z,70.43
2022-10-28T19:41:30.778Z,70.20
2022-10-28T19:43:59.897Z,70.32
2022-10-28T19:46:29.150Z,70.11
2022-10-28T19:48:59.345Z,70.21
2022-10-28T19:51:29.819Z,70.25
2022-10-28T19:54:07.770Z,70.62
2022-10-28T19:56:38.445Z,70.58
2022-10-28T19:59:06.649Z,69.74
2022-10-28T20:01:36.272Z,70.58
2022-10-28T20:04:03.971Z,70.79
2022-10-28T20:06:34.018Z,70.78
2022-10-28T20:09:01.396Z,70.81
2022-10-28T20:11:34.035Z,71.04
2022-10-28T20:14:04.267Z,70.96
2022-10-28T20:16:32.745Z,71.22
2022-10-28T20:19:00.287Z,71.67
2022-10-28T20:21:30.106Z,71.46
2022-10-28T20:23:58.016Z,71.17
2022-10-28T20:26:30.426Z,71.60
2022-10-28T20:28:58.711Z,71.62
2022-10-28T20:31:29.103Z,72.15
2022-10-28T20:33:58.817Z,72.68
2022-10-28T20:36:32.887Z,72.41
2022-10-28T20:39:23.006Z,72.50
2022-10-28T20:41:51.326Z,72.26
2022-10-28T20:44:18.604Z,73.14
2022-10-28T20:46:48.233Z,72.55
2022-10-28T20:49:15.663Z,72.45
2022-10-28T20:51:42.988Z,71.67
2022-10-28T20:54:10.040Z,71.79
2022-10-28T20:56:38.604Z,72.23
2022-10-28T20:59:06.408Z,71.59
2022-10-28T21:01:36.852Z,71.68
2022-10-28T21:04:07.344Z,72.15
2022-10-28T21:07:04.729Z,72.22
2022-10-28T21:09:31.911Z,72.55
2022-10-28T21:11:58.980Z,72.89
2022-10-28T21:14:26.008Z,72.90
2022-10-28T21:16:53.139Z,72.94
2022-10-28T21:19:20.120Z,73.00
2022-10-28T21:21:47.125Z,73.01
2022-10-28T21:24:14.179Z,72.99
2022-10-28T21:26:41.225Z,73.08
2022-10-28T21:29:08.178Z,72.80
2022-10-28T21:31:35.183Z,73.13
2022-10-28T21:34:04.499Z,73.23
2022-10-28T21:36:34.518Z,73.25
2022-10-28T21:39:01.510Z,73.28
2022-10-28T21:41:28.828Z,73.31
2022-10-28T21:43:55.806Z,73.38
2022-10-28T21:46:25.672Z,73.49
2022-10-28T21:48:52.707Z,73.11
2022-10-28T21:51:19.699Z,73.18
2022-10-28T21:53:46.830Z,73.43
2022-10-28T21:56:20.386Z,73.50
2022-10-28T21:58:49.531Z,73.18
2022-10-28T22:01:19.597Z,72.87
2022-10-28T22:03:47.405Z,73.06
2022-10-28T22:06:14.714Z,72.97
2022-10-28T22:08:41.893Z,72.92
2022-10-28T22:11:12.819Z,72.81
2022-10-28T22:13:39.835Z,72.93
2022-10-28T22:16:10.438Z,72.96
2022-10-28T22:18:38.459Z,72.69
2022-10-28T22:21:07.108Z,72.66
2022-10-28T22:23:34.530Z,72.40
2022-10-28T22:26:07.914Z,72.36
2022-10-28T22:28:35.474Z,72.40
2022-10-28T22:31:04.647Z,72.46
2022-10-28T22:33:31.768Z,72.43
2022-10-28T22:36:00.151Z,72.14
2022-10-28T22:38:27.564Z,72.25
2022-10-28T22:41:08.652Z,71.82
2022-10-28T22:43:35.655Z,71.99
2022-10-28T22:46:03.192Z,72.00
2022-10-28T22:48:30.761Z,71.91
2022-10-28T22:50:58.437Z,71.79
2022-10-28T22:53:25.786Z,71.81
2022-10-28T22:55:53.774Z,71.72
2022-10-28T22:58:22.353Z,71.67
2022-10-28T23:00:49.975Z,71.78
2022-10-28T23:03:17.224Z,71.98
2022-10-28T23:05:44.239Z,71.97
2022-10-28T23:08:15.740Z,72.23
2022-10-28T23:10:42.940Z,72.06
2022-10-28T23:13:13.778Z,72.00
2022-10-28T23:15:40.815Z,71.75
2022-10-28T23:18:07.871Z,71.88
2022-10-28T23:20:36.331Z,71.90
2022-10-28T23:23:03.671Z,71.94
2022-10-28T23:25:30.722Z,71.91
2022-10-28T23:27:58.453Z,71.88
2022-10-28T23:30:25.855Z,71.93
2022-10-28T23:32:53.063Z,71.84
2022-10-28T23:35:20.263Z,71.83
2022-10-28T23:37:47.327Z,71.78
2022-10-28T23:40:14.267Z,71.77
2022-10-28T23:42:41.266Z,71.84
2022-10-28T23:45:09.758Z,71.79
2022-10-28T23:47:36.882Z,71.89
2022-10-28T23:50:04.342Z,71.71
2022-10-28T23:52:31.503Z,71.84
2022-10-28T23:54:58.679Z,71.49
2022-10-28T23:57:25.559Z,71.93
2022-10-28T23:59:53.751Z,71.89
